createdAt,value
2022-08-13T00:01:43.604Z,19.23
2022-08-13T00:04:20.395Z,19.22
2022-08-13T00:07:20.477Z,19.23
2022-08-13T00:09:51.690Z,19.22
2022-08-13T00:12:52.458Z,19.20
2022-08-13T00:15:37.161Z,19.19
2022-08-13T00:18:18.172Z,19.19
2022-08-13T00:21:01.240Z,19.19
2022-08-13T00:23:53.132Z,19.18
2022-08-13T00:26:30.628Z,19.16
2022-08-13T00:29:03.470Z,19.14
2022-08-13T00:31:32.654Z,19.14
2022-08-13T00:34:02.573Z,19.12
2022-08-13T00:36:37.364Z,19.11
2022-08-13T00:39:09.887Z,19.11
2022-08-13T00:41:59.438Z,19.09
2022-08-13T00:44:33.340Z,19.08
2022-08-13T00:47:22.977Z,19.07
2022-08-13T00:50:01.724Z,19.05
2022-08-13T00:52:33.975Z,19.02
2022-08-13T00:55:07.541Z,19.00
2022-08-13T00:57:39.588Z,18.97
2022-08-13T01:00:14.054Z,18.97
2022-08-13T01:03:14.428Z,18.96
2022-08-13T01:05:48.928Z,18.95
2022-08-13T01:08:20.567Z,18.95
2022-08-13T01:10:58.638Z,18.96
2022-08-13T01:13:28.716Z,18.95
2022-08-13T01:16:14.851Z,18.94
2022-08-13T01:18:49.487Z,18.93
2022-08-13T01:21:39.761Z,18.93
2022-08-13T01:24:13.251Z,18.93
2022-08-13T01:26:46.848Z,18.93
2022-08-13T01:29:21.051Z,18.90
2022-08-13T01:31:50.274Z,18.88
2022-08-13T01:34:24.536Z,18.87
2022-08-13T01:36:57.279Z,18.87
2022-08-13T01:39:39.394Z,18.86
2022-08-13T01:42:32.743Z,18.86
2022-08-13T01:45:02.321Z,18.85
2022-08-13T01:47:57.907Z,18.84
2022-08-13T01:50:39.575Z,18.82
2022-08-13T01:53:12.320Z,18.80
2022-08-13T01:56:15.205Z,18.79
2022-08-13T01:58:33.983Z,18.79
2022-08-13T02:01:09.436Z,18.79
2022-08-13T02:03:41.766Z,18.78
2022-08-13T02:06:24.353Z,18.79
2022-08-13T02:09:01.519Z,18.79
2022-08-13T02:11:42.314Z,18.79
2022-08-13T02:14:19.436Z,18.77
2022-08-13T02:16:53.848Z,18.75
2022-08-13T02:19:27.632Z,18.76
2022-08-13T02:22:02.170Z,18.76
2022-08-13T02:24:31.305Z,18.76
2022-08-13T02:26:59.594Z,18.75
2022-08-13T02:29:27.596Z,18.75
2022-08-13T02:32:14.976Z,18.74
2022-08-13T02:34:51.898Z,18.72
2022-08-13T02:37:46.257Z,18.71
2022-08-13T02:40:32.297Z,18.68
2022-08-13T02:43:01.424Z,18.66
2022-08-13T02:45:30.074Z,18.62
2022-08-13T02:48:04.188Z,18.58
2022-08-13T02:50:43.571Z,18.57
2022-08-13T02:53:30.040Z,18.54
2022-08-13T02:56:01.133Z,18.50
2022-08-13T02:58:29.143Z,18.47
2022-08-13T03:00:59.015Z,18.43
2022-08-13T03:03:28.424Z,18.40
2022-08-13T03:05:59.555Z,18.35
2022-08-13T03:08:39.237Z,18.30
2022-08-13T03:11:10.780Z,18.26
2022-08-13T03:13:46.088Z,18.22
2022-08-13T03:16:19.105Z,18.19
2022-08-13T03:18:52.887Z,18.16
2022-08-13T03:21:40.895Z,18.14
2022-08-13T03:24:20.815Z,18.11
2022-08-13T03:26:53.762Z,18.08
2022-08-13T03:29:57.942Z,18.06
2022-08-13T03:32:15.218Z,18.02
2022-08-13T03:34:46.630Z,18.00
2022-08-13T03:37:16.212Z,17.97
2022-08-13T03:39:45.532Z,17.95
2022-08-13T03:42:30.353Z,17.95
2022-08-13T03:45:04.045Z,17.97
2022-08-13T03:47:32.492Z,18.00
2022-08-13T03:50:02.459Z,18.04
2022-08-13T03:52:50.788Z,18.08
2022-08-13T03:55:20.218Z,18.14
2022-08-13T03:58:02.603Z,18.19
2022-08-13T04:00:36.582Z,18.24
2022-08-13T04:03:15.481Z,18.28
2022-08-13T04:05:56.466Z,18.32
2022-08-13T04:08:37.877Z,18.34
2022-08-13T04:11:09.601Z,18.35
2022-08-13T04:14:06.504Z,18.37
2022-08-13T04:16:32.146Z,18.40
2022-08-13T04:19:05.682Z,18.45
2022-08-13T04:21:46.201Z,18.51
2022-08-13T04:24:16.259Z,18.56
2022-08-13T04:26:47.553Z,18.60
2022-08-13T04:29:18.072Z,18.64
2022-08-13T04:31:50.968Z,18.66
2022-08-13T04:34:43.619Z,18.69
2022-08-13T04:37:21.120Z,18.72
2022-08-13T04:40:08.329Z,18.77
2022-08-13T04:42:56.472Z,18.81
2022-08-13T04:45:30.616Z,18.84
2022-08-13T04:48:05.566Z,18.85
2022-08-13T04:50:36.114Z,18.87
2022-08-13T04:53:07.718Z,18.89
2022-08-13T04:56:08.119Z,18.93
2022-08-13T04:58:34.795Z,18.95
2022-08-13T05:01:48.238Z,19.03
2022-08-13T05:04:11.872Z,19.10
2022-08-13T05:06:51.601Z,19.18
2022-08-13T05:09:35.290Z,19.27
2022-08-13T05:12:05.393Z,19.34
2022-08-13T05:14:37.739Z,19.41
2022-08-13T05:17:06.273Z,19.47
2022-08-13T05:19:39.305Z,19.53
2022-08-13T05:22:17.865Z,19.58
2022-08-13T05:26:20.583Z,19.63
2022-08-13T05:27:46.112Z,19.66
2022-08-13T05:30:29.940Z,19.66
2022-08-13T05:33:01.081Z,19.67
2022-08-13T05:38:15.399Z,19.70
2022-08-13T05:38:31.923Z,19.73
2022-08-13T05:41:03.593Z,19.79
2022-08-13T05:43:35.515Z,19.88
2022-08-13T05:46:09.736Z,20.15
2022-08-13T05:48:40.819Z,20.69
2022-08-13T05:51:11.616Z,21.11
2022-08-13T05:56:04.331Z,21.13
2022-08-13T05:56:38.293Z,21.14
2022-08-13T05:59:13.195Z,21.14
2022-08-13T06:02:03.013Z,21.08
2022-08-13T06:04:37.312Z,20.96
2022-08-13T06:07:07.915Z,20.86
2022-08-13T06:09:36.866Z,20.73
2022-08-13T06:12:07.236Z,20.60
2022-08-13T06:14:54.095Z,20.36
2022-08-13T06:17:24.609Z,20.14
2022-08-13T06:20:02.112Z,19.98
2022-08-13T06:22:35.011Z,19.83
2022-08-13T06:25:06.636Z,19.71
2022-08-13T06:27:56.243Z,19.60
2022-08-13T06:30:29.551Z,19.47
2022-08-13T06:46:35.876Z,18.56
2022-08-13T06:49:06.922Z,18.53
2022-08-13T06:51:43.087Z,18.50
2022-08-13T06:54:23.713Z,18.48
2022-08-13T06:57:07.400Z,18.47
2022-08-13T07:00:05.472Z,18.46
2022-08-13T07:02:35.721Z,18.43
2022-08-13T07:05:07.906Z,18.46
2022-08-13T07:07:43.339Z,18.49
2022-08-13T07:10:11.706Z,18.49
2022-08-13T07:12:42.558Z,18.50
2022-08-13T07:15:24.520Z,18.50
2022-08-13T07:18:01.963Z,18.52
2022-08-13T07:20:31.320Z,18.54
2022-08-13T07:24:49.881Z,18.58
2022-08-13T07:25:56.140Z,18.62
2022-08-13T07:28:47.934Z,18.67
2022-08-13T07:31:53.991Z,18.78
2022-08-13T07:34:16.682Z,18.92
2022-08-13T07:36:45.607Z,19.03
2022-08-13T07:39:25.127Z,19.12
2022-08-13T07:42:02.260Z,19.23
2022-08-13T07:44:40.058Z,19.35
2022-08-13T07:47:24.544Z,19.48
2022-08-13T07:49:58.816Z,19.58
2022-08-13T07:52:29.084Z,19.64
2022-08-13T07:55:01.069Z,19.69
2022-08-13T07:57:38.083Z,19.75
2022-08-13T08:00:27.725Z,19.81
2022-08-13T08:03:03.575Z,19.87
2022-08-13T08:05:41.050Z,19.87
2022-08-13T08:08:11.801Z,19.78
2022-08-13T08:10:43.095Z,19.68
2022-08-13T08:13:12.221Z,19.63
2022-08-13T08:16:02.533Z,19.63
2022-08-13T08:18:35.015Z,19.66
2022-08-13T08:21:48.244Z,19.77
2022-08-13T08:24:21.545Z,19.94
2022-08-13T08:26:59.137Z,20.17
2022-08-13T08:29:26.774Z,20.40
2022-08-13T08:32:09.507Z,20.67
2022-08-13T08:34:39.890Z,20.93
2022-08-13T08:37:34.403Z,21.19
2022-08-13T08:40:30.830Z,21.44
2022-08-13T08:43:21.532Z,21.76
2022-08-13T08:46:09.867Z,22.02
2022-08-13T08:48:37.035Z,22.28
2022-08-13T08:51:08.180Z,22.52
2022-08-13T08:54:11.124Z,22.92
2022-08-13T08:56:34.945Z,23.58
2022-08-13T08:59:03.405Z,23.97
2022-08-13T09:01:59.477Z,24.36
2022-08-13T09:04:46.759Z,24.71
2022-08-13T09:07:18.384Z,25.03
2022-08-13T09:09:50.395Z,25.20
2022-08-13T09:12:17.168Z,25.42
2022-08-13T09:14:47.355Z,25.59
2022-08-13T09:17:15.804Z,25.69
2022-08-13T09:19:47.107Z,25.91
2022-08-13T09:22:26.628Z,26.23
2022-08-13T09:24:59.672Z,26.38
2022-08-13T09:28:11.221Z,26.41
2022-08-13T09:30:23.326Z,26.62
2022-08-13T09:32:58.419Z,26.75
2022-08-13T09:35:34.034Z,27.00
2022-08-13T09:38:10.665Z,27.21
2022-08-13T09:40:59.286Z,27.32
2022-08-13T09:43:43.683Z,27.27
2022-08-13T09:46:19.554Z,27.21
2022-08-13T09:48:53.429Z,27.15
2022-08-13T09:52:01.614Z,27.14
2022-08-13T09:54:11.598Z,26.95
2022-08-13T09:56:40.376Z,26.64
2022-08-13T09:59:15.978Z,26.43
2022-08-13T10:01:58.473Z,26.10
2022-08-13T10:04:30.735Z,25.75
2022-08-13T10:07:03.965Z,25.55
2022-08-13T10:09:55.158Z,25.30
2022-08-13T10:12:22.624Z,25.35
2022-08-13T10:14:49.476Z,25.42
2022-08-13T10:17:22.136Z,25.51
2022-08-13T10:19:50.337Z,25.70
2022-08-13T10:22:17.135Z,25.96
2022-08-13T10:24:50.755Z,26.07
2022-08-13T10:27:17.549Z,26.47
2022-08-13T10:30:08.916Z,26.92
2022-08-13T10:32:34.298Z,27.42
2022-08-13T10:35:02.289Z,27.97
2022-08-13T10:37:31.556Z,28.51
2022-08-13T10:39:59.992Z,29.08
2022-08-13T10:42:27.238Z,29.54
2022-08-13T10:44:56.524Z,29.88
2022-08-13T10:47:37.534Z,30.08
2022-08-13T10:50:14.053Z,30.26
2022-08-13T10:52:46.591Z,30.82
2022-08-13T10:55:37.948Z,31.45
2022-08-13T10:58:42.491Z,31.75
2022-08-13T11:01:00.368Z,31.60
2022-08-13T11:03:27.269Z,31.55
2022-08-13T11:06:13.942Z,31.60
2022-08-13T11:08:40.556Z,32.02
2022-08-13T11:11:37.029Z,32.37
2022-08-13T11:13:58.712Z,32.73
2022-08-13T11:16:37.807Z,32.88
2022-08-13T11:19:20.834Z,32.79
2022-08-13T11:22:19.811Z,32.52
2022-08-13T11:24:57.523Z,32.15
2022-08-13T11:27:30.681Z,31.89
2022-08-13T11:30:14.587Z,31.83
2022-08-13T11:33:05.800Z,31.51
2022-08-13T11:35:37.881Z,31.43
2022-08-13T11:38:12.882Z,31.58
2022-08-13T11:40:58.389Z,31.54
2022-08-13T11:43:51.725Z,31.22
2022-08-13T11:46:16.124Z,30.72
2022-08-13T11:48:54.004Z,30.22
2022-08-13T11:51:50.997Z,29.65
2022-08-13T11:54:30.034Z,29.14
2022-08-13T11:57:13.195Z,28.82
2022-08-13T11:59:44.837Z,28.50
2022-08-13T12:02:17.567Z,28.23
2022-08-13T12:04:49.615Z,28.04
2022-08-13T12:07:24.455Z,27.92
2022-08-13T12:09:57.141Z,27.83
2022-08-13T12:12:28.733Z,27.80
2022-08-13T12:14:56.269Z,27.80
2022-08-13T12:17:50.870Z,27.77
2022-08-13T12:20:20.026Z,27.65
2022-08-13T12:22:53.482Z,27.52
2022-08-13T12:25:35.774Z,27.41
2022-08-13T12:28:21.199Z,27.27
2022-08-13T12:30:52.450Z,27.13
2022-08-13T12:33:22.340Z,26.96
2022-08-13T12:35:56.769Z,26.86
2022-08-13T12:38:30.925Z,26.83
2022-08-13T12:41:17.688Z,26.83
2022-08-13T12:45:00.031Z,26.87
2022-08-13T12:46:34.712Z,26.94
2022-08-13T12:49:11.401Z,27.08
2022-08-13T12:51:54.982Z,27.21
2022-08-13T12:54:47.679Z,27.21
2022-08-13T12:57:27.111Z,27.18
2022-08-13T13:00:03.780Z,27.29
2022-08-13T13:02:31.821Z,27.55
2022-08-13T13:05:15.128Z,27.89
2022-08-13T13:08:06.410Z,28.25
2022-08-13T13:10:38.634Z,28.74
2022-08-13T13:13:24.172Z,29.15
2022-08-13T13:18:52.339Z,29.98
2022-08-13T13:21:26.936Z,30.14
2022-08-13T13:24:00.627Z,30.27
2022-08-13T13:26:28.389Z,30.38
2022-08-13T13:28:57.931Z,30.49
2022-08-13T13:31:26.943Z,30.81
2022-08-13T13:34:11.828Z,31.45
2022-08-13T13:36:39.136Z,32.28
2022-08-13T13:39:06.857Z,33.10
2022-08-13T13:41:54.343Z,33.88
2022-08-13T13:44:40.304Z,34.33
2022-08-13T13:47:09.859Z,34.74
2022-08-13T13:49:37.121Z,35.10
2022-08-13T13:52:05.378Z,35.49
2022-08-13T13:54:38.296Z,35.81
2022-08-13T13:57:04.915Z,36.12
2022-08-13T13:59:36.990Z,36.43
2022-08-13T14:02:14.426Z,36.69
2022-08-13T14:05:13.176Z,36.85
2022-08-13T14:07:49.417Z,36.97
2022-08-13T14:10:18.642Z,36.83
2022-08-13T14:15:35.065Z,37.05
2022-08-13T14:18:23.751Z,37.20
2022-08-13T14:20:56.986Z,37.46
2022-08-13T14:23:39.036Z,37.62
2022-08-13T14:26:10.058Z,37.90
2022-08-13T14:28:43.489Z,38.32
2022-08-13T14:31:12.365Z,38.89
2022-08-13T14:33:58.696Z,39.36
2022-08-13T14:36:34.058Z,39.83
2022-08-13T14:39:21.048Z,40.26
2022-08-13T14:41:50.582Z,40.37
2022-08-13T14:44:41.385Z,39.80
2022-08-13T14:47:11.270Z,38.70
2022-08-13T14:49:55.904Z,37.77
2022-08-13T14:52:56.469Z,37.19
2022-08-13T14:55:18.476Z,37.13
2022-08-13T14:58:00.414Z,37.27
2022-08-13T15:00:38.325Z,36.99
2022-08-13T15:03:16.336Z,36.56
2022-08-13T15:05:53.258Z,36.05
2022-08-13T15:08:31.792Z,35.71
2022-08-13T15:11:06.448Z,35.72
2022-08-13T15:13:54.537Z,36.64
2022-08-13T15:16:30.895Z,37.72
2022-08-13T15:19:02.956Z,37.87
2022-08-13T15:21:47.092Z,37.93
2022-08-13T15:24:37.638Z,38.21
2022-08-13T15:27:43.075Z,38.71
2022-08-13T15:30:16.449Z,39.29
2022-08-13T15:33:01.088Z,39.22
2022-08-13T15:35:36.908Z,38.96
2022-08-13T15:38:11.807Z,38.59
2022-08-13T15:40:47.902Z,38.40
2022-08-13T15:43:18.024Z,38.67
2022-08-13T15:46:03.190Z,39.00
2022-08-13T15:48:30.745Z,39.12
2022-08-13T15:50:59.799Z,39.36
2022-08-13T15:53:29.694Z,39.63
2022-08-13T15:56:02.070Z,39.69
2022-08-13T15:58:33.856Z,39.38
2022-08-13T16:01:20.287Z,38.68
2022-08-13T16:03:55.405Z,37.64
2022-08-13T16:06:29.957Z,36.67
2022-08-13T16:08:58.668Z,35.83
2022-08-13T16:11:43.815Z,35.24
2022-08-13T16:14:19.388Z,34.68
2022-08-13T16:16:53.234Z,34.16
2022-08-13T16:19:51.803Z,33.58
2022-08-13T16:22:12.533Z,32.90
2022-08-13T16:24:40.876Z,32.30
2022-08-13T16:27:24.898Z,31.79
2022-08-13T16:30:02.317Z,31.28
2022-08-13T16:32:32.589Z,30.87
2022-08-13T16:35:16.842Z,30.51
2022-08-13T16:38:05.793Z,30.16
2022-08-13T16:40:42.236Z,29.73
2022-08-13T16:43:11.164Z,29.42
2022-08-13T16:45:50.197Z,29.14
2022-08-13T16:48:27.469Z,28.87
2022-08-13T16:51:01.534Z,28.57
2022-08-13T16:54:23.998Z,28.35
2022-08-13T16:56:18.692Z,28.12
2022-08-13T16:58:54.431Z,27.93
2022-08-13T17:01:25.663Z,27.74
2022-08-13T17:05:17.821Z,27.62
2022-08-13T17:07:17.584Z,27.50
2022-08-13T17:09:46.917Z,27.38
2022-08-13T17:12:17.590Z,27.26
2022-08-13T17:14:46.933Z,27.13
2022-08-13T17:17:14.760Z,26.99
2022-08-13T17:19:58.123Z,26.66
2022-08-13T17:22:32.083Z,26.05
2022-08-13T17:25:01.393Z,25.56
2022-08-13T17:27:29.335Z,25.06
2022-08-13T17:30:06.174Z,24.67
2022-08-13T17:32:37.030Z,24.37
2022-08-13T17:35:14.825Z,24.08
2022-08-13T17:37:59.368Z,23.86
2022-08-13T17:40:34.972Z,23.64
2022-08-13T17:44:00.553Z,23.50
2022-08-13T17:45:57.111Z,23.47
2022-08-13T17:48:39.237Z,23.38
2022-08-13T17:51:22.280Z,23.32
2022-08-13T17:53:51.344Z,23.25
2022-08-13T17:56:17.925Z,23.20
2022-08-13T17:58:45.701Z,23.19
2022-08-13T18:01:23.421Z,23.15
2022-08-13T18:03:54.370Z,23.08
2022-08-13T18:06:27.746Z,23.05
2022-08-13T18:09:10.924Z,23.00
2022-08-13T18:11:44.085Z,22.92
2022-08-13T18:14:34.615Z,22.85
2022-08-13T18:17:29.303Z,22.81
2022-08-13T18:19:55.191Z,22.76
2022-08-13T18:22:26.570Z,22.70
2022-08-13T18:24:57.316Z,22.64
2022-08-13T18:28:06.087Z,22.61
2022-08-13T18:30:28.321Z,22.61
2022-08-13T18:33:11.928Z,22.62
2022-08-13T18:35:53.406Z,22.63
2022-08-13T18:38:21.109Z,22.63
2022-08-13T18:40:50.369Z,22.61
2022-08-13T18:43:24.841Z,22.63
2022-08-13T18:45:58.471Z,22.64
2022-08-13T18:48:33.726Z,22.64
2022-08-13T18:51:19.921Z,22.64
2022-08-13T18:53:53.890Z,22.63
2022-08-13T18:56:23.786Z,22.62
2022-08-13T18:58:53.127Z,22.59
2022-08-13T19:01:21.772Z,22.57
2022-08-13T19:04:01.246Z,22.56
2022-08-13T19:06:31.931Z,22.54
2022-08-13T19:09:06.825Z,22.49
2022-08-13T19:11:41.233Z,22.46
2022-08-13T19:14:19.796Z,22.41
2022-08-13T19:16:57.851Z,22.42
2022-08-13T19:19:55.248Z,22.43
2022-08-13T19:22:19.395Z,22.40
2022-08-13T19:24:48.537Z,22.36
2022-08-13T19:27:20.622Z,22.40
2022-08-13T19:29:48.320Z,22.43
2022-08-13T19:32:19.964Z,22.46
2022-08-13T19:34:56.237Z,22.49
2022-08-13T19:37:23.251Z,22.45
2022-08-13T19:39:58.851Z,22.39
2022-08-13T19:42:33.834Z,22.34
2022-08-13T19:45:09.350Z,22.30
2022-08-13T19:47:58.674Z,22.22
2022-08-13T19:50:32.613Z,22.14
2022-08-13T19:53:04.271Z,22.07
2022-08-13T19:55:53.184Z,22.00
2022-08-13T19:58:19.240Z,21.95
2022-08-13T20:00:53.019Z,21.91
2022-08-13T20:03:39.763Z,21.85
2022-08-13T20:06:09.179Z,21.79
2022-08-13T20:08:43.894Z,21.74
2022-08-13T20:11:22.247Z,21.69
2022-08-13T20:14:00.927Z,21.63
2022-08-13T20:16:29.239Z,21.59
2022-08-13T20:18:58.026Z,21.54
2022-08-13T20:21:44.097Z,21.49
2022-08-13T20:24:35.981Z,21.45
2022-08-13T20:27:17.935Z,21.43
2022-08-13T20:29:58.400Z,21.37
2022-08-13T20:32:32.554Z,21.34
2022-08-13T20:35:08.490Z,21.29
2022-08-13T20:37:53.033Z,21.27
2022-08-13T20:40:29.641Z,21.23
2022-08-13T20:43:01.507Z,21.21
2022-08-13T20:45:43.884Z,21.19
2022-08-13T20:48:30.700Z,21.17
2022-08-13T20:51:05.968Z,21.17
2022-08-13T20:53:37.404Z,21.17
2022-08-13T20:56:15.571Z,21.17
2022-08-13T21:00:43.855Z,21.17
2022-08-13T21:01:53.243Z,21.18
2022-08-13T21:04:21.950Z,21.19
2022-08-13T21:06:50.682Z,21.19
2022-08-13T21:09:19.811Z,21.22
2022-08-13T21:11:49.863Z,21.25
2022-08-13T21:14:16.971Z,21.28
2022-08-13T21:17:00.687Z,21.30
2022-08-13T21:19:37.466Z,21.32
2022-08-13T21:22:07.138Z,21.34
2022-08-13T21:24:37.874Z,21.37
2022-08-13T21:27:23.791Z,21.39
2022-08-13T21:30:04.026Z,21.38
2022-08-13T21:32:47.581Z,21.38
2022-08-13T21:35:16.656Z,21.39
2022-08-13T21:37:46.033Z,21.38
2022-08-13T21:43:02.375Z,21.38
2022-08-13T21:45:34.372Z,21.38
2022-08-13T21:48:01.132Z,21.38
2022-08-13T21:50:32.738Z,21.37
2022-08-13T21:53:28.121Z,21.36
2022-08-13T21:55:52.617Z,21.37
2022-08-13T21:58:28.138Z,21.35
2022-08-13T22:00:55.577Z,21.31
2022-08-13T22:04:02.570Z,21.29
2022-08-13T22:06:16.681Z,21.25
2022-08-13T22:08:45.177Z,21.24
2022-08-13T22:11:13.856Z,21.21
2022-08-13T22:13:42.001Z,21.18
2022-08-13T22:16:10.054Z,21.17
2022-08-13T22:18:39.779Z,21.16
2022-08-13T22:21:07.436Z,21.15
2022-08-13T22:23:34.906Z,21.14
2022-08-13T22:26:01.724Z,21.14
2022-08-13T22:28:47.206Z,21.13
2022-08-13T22:31:20.459Z,21.12
2022-08-13T22:34:01.815Z,21.11
2022-08-13T22:36:33.411Z,21.11
2022-08-13T22:39:07.591Z,21.11
2022-08-13T22:41:40.767Z,21.11
2022-08-13T22:44:09.676Z,21.11
2022-08-13T22:46:37.035Z,21.09
2022-08-13T22:49:06.368Z,21.09
2022-08-13T22:51:33.936Z,21.07
2022-08-13T22:54:00.720Z,21.05
2022-08-13T22:56:27.941Z,21.03
2022-08-13T22:59:09.070Z,21.02
2022-08-13T23:01:39.360Z,21.03
2022-08-13T23:04:11.157Z,21.03
2022-08-13T23:06:48.255Z,21.02
2022-08-13T23:09:14.784Z,21.02
2022-08-13T23:11:42.422Z,21.02
2022-08-13T23:14:09.846Z,21.02
2022-08-13T23:16:36.774Z,21.02
2022-08-13T23:19:04.338Z,21.01
2022-08-13T23:21:31.009Z,21.00
2022-08-13T23:23:58.632Z,20.99
2022-08-13T23:26:29.774Z,20.98
2022-08-13T23:29:01.059Z,20.97
2022-08-13T23:31:30.360Z,20.96
2022-08-13T23:34:04.753Z,20.94
2022-08-13T23:36:33.847Z,20.93
2022-08-13T23:39:00.813Z,20.91
2022-08-13T23:41:27.500Z,20.90
2022-08-13T23:44:02.080Z,20.89
2022-08-13T23:46:37.658Z,20.86
2022-08-13T23:49:05.516Z,20.86
2022-08-13T23:51:34.496Z,20.85
2022-08-13T23:54:03.675Z,20.83
2022-08-13T23:56:38.565Z,20.83
2022-08-13T23:59:17.863Z,20.82
